Vivien A — TCYC4 — position and weather

sailwx.info

Track history (hours):
 
Tides and Currents Weather Stations Pressure Air Temp Water Temp Dewpoint Dewpoint Depression Visibility Wind Speed Wind Dir Waves Ship Positions

Vivien A

Last reported at 2015-Apr-17 08:10 UTC. Time now 2015-Apr-25 04:21 UTC.
Position N 36°01' W 005°25'.

Length 210 m; draft 11 m.

Type: Ship (hazmat cat A). MMSI: 271040635.

Date/timePositionNaut miles runAvg speedWind from/ knotsBaromVisibWave heightAir tempDewpointWater temp
2015-Apr-17 08:10N 36°01' W 005°25'610.2
2015-Apr-17 07:33N 36°07' W 005°23'3 0.7
2015-Apr-17 03:16N 36°09' W 005°26'0 0.0
2015-Apr-16 21:07N 36°09' W 005°26'3 0.1
2015-Apr-15 19:33N 36°07' W 005°23'2 1.9
2015-Apr-15 18:33N 36°06' W 005°22'0 0.3
2015-Apr-15 17:33N 36°05' W 005°22'6 6.3
2015-Apr-15 16:33N 35°59' W 005°23'  
2015-Apr-12 03:24N 37°32' W 009°35'911.0
2015-Apr-12 02:32N 37°42' W 009°34'1110.9
2015-Apr-12 01:33N 37°52' W 009°32'1111.0
2015-Apr-12 00:33N 38°03' W 009°29'1111.1
2015-Apr-11 23:33N 38°14' W 009°27'1111.2
2015-Apr-11 22:33N 38°25' W 009°25'1110.7
2015-Apr-11 21:33N 38°36' W 009°24'1010.1
2015-Apr-11 20:33N 38°41' W 009°13'3 2.5
2015-Apr-11 19:33N 38°42' W 009°10'0 0.0
2015-Apr-11 18:33N 38°42' W 009°10'0 0.0
2015-Apr-11 17:33N 38°42' W 009°10'0 0.0
2015-Apr-11 16:33N 38°42' W 009°10'0 0.0
2015-Apr-11 15:33N 38°42' W 009°10'0 0.0
2015-Apr-11 14:33N 38°42' W 009°10'0 0.0
2015-Apr-11 13:33N 38°42' W 009°10'0 0.0
2015-Apr-11 12:33N 38°42' W 009°10'0 0.0
2015-Apr-11 11:30N 38°42' W 009°10'0 0.0
2015-Apr-11 10:33N 38°42' W 009°10'0 0.0
2015-Apr-11 09:33N 38°42' W 009°10'0 0.0
2015-Apr-11 08:33N 38°42' W 009°10'0 0.0
2015-Apr-11 07:33N 38°42' W 009°10'0 0.0
2015-Apr-11 06:33N 38°42' W 009°10'0 0.3
2015-Apr-11 05:33N 38°42' W 009°10'9 8.6
2015-Apr-11 04:33N 38°39' W 009°20'1313.4
2015-Apr-11 03:33N 38°35' W 009°36'1414.0
2015-Apr-11 02:33N 38°34' W 009°54'1212.1
2015-Apr-11 01:33N 38°37' W 010°09'1514.3
2015-Apr-11 00:31N 38°51' W 010°10'1414.6
2015-Apr-10 23:33N 39°05' W 010°05'1515.1
2015-Apr-10 22:33N 39°19' W 009°57'1414.4
2015-Apr-10 21:33N 39°31' W 009°48'3 0.1
2015-Apr-08 20:20N 39°34' W 009°47'912.3
2015-Apr-08 19:33N 39°24' W 009°48'1413.5
2015-Apr-08 18:33N 39°11' W 009°46'1413.7
2015-Apr-08 17:33N 38°57' W 009°44'1313.5
2015-Apr-08 16:33N 38°44' W 009°42'1312.5
2015-Apr-08 15:33N 38°34' W 009°32'1313.3
2015-Apr-08 14:33N 38°25' W 009°20'1111.1
2015-Apr-08 13:33N 38°24' W 009°06'8 8.5
2015-Apr-08 12:33N 38°28' W 008°57'5 3.9
2015-Apr-08 11:24N 38°28' W 008°51'3 2.9
2015-Apr-08 10:31N 38°28' W 008°48'0 0.0
2015-Apr-08 09:31N 38°28' W 008°48'0 0.0
2015-Apr-08 08:31N 38°28' W 008°48'0 0.0
2015-Apr-08 07:31N 38°28' W 008°48'0 0.0
2015-Apr-08 06:28N 38°28' W 008°48'0 0.0
2015-Apr-08 05:28N 38°28' W 008°48'0 0.0
2015-Apr-08 04:31N 38°28' W 008°48'0 0.0
2015-Apr-08 03:28N 38°28' W 008°48'0 0.0
2015-Apr-08 02:31N 38°28' W 008°48'0 0.0
2015-Apr-08 01:31N 38°28' W 008°48'0 0.0
2015-Apr-08 00:31N 38°28' W 008°48'0 0.0
2015-Apr-07 23:31N 38°28' W 008°48'0 0.0
2015-Apr-07 22:31N 38°28' W 008°48'0 0.0
2015-Apr-07 21:31N 38°28' W 008°48'0 0.0
2015-Apr-07 20:31N 38°28' W 008°48'0 0.0
2015-Apr-07 19:28N 38°28' W 008°48'0 0.0
2015-Apr-07 18:31N 38°28' W 008°48'0 0.0
2015-Apr-07 17:31N 38°28' W 008°48'0 0.0
2015-Apr-07 16:28N 38°28' W 008°48'0 0.0
2015-Apr-07 15:31N 38°28' W 008°48'0 0.0
2015-Apr-07 14:28N 38°28' W 008°48'0 0.0
2015-Apr-07 13:31N 38°28' W 008°48'0 0.0
2015-Apr-07 12:31N 38°28' W 008°48'0 0.0
2015-Apr-07 11:31N 38°28' W 008°48'0 0.0
2015-Apr-07 10:31N 38°28' W 008°48'0 0.0
2015-Apr-07 09:31N 38°28' W 008°48'0 0.0
2015-Apr-07 08:31N 38°28' W 008°48'  
Track history (hours):
 
Tides and Currents Weather Stations Pressure Air Temp Water Temp Dewpoint Dewpoint Depression Visibility Wind Speed Wind Dir Waves Ship Positions

Vivien A

Last reported at 2015-Apr-17 08:10 UTC. Time now 2015-Apr-25 04:21 UTC.
Position N 36°01' W 005°25'.

Length 210 m; draft 11 m.

Type: Ship (hazmat cat A). MMSI: 271040635.

Date/timePositionNaut miles runAvg speedWind from/ knotsBaromVisibWave heightAir tempDewpointWater temp
2015-Apr-17 08:10N 36°01' W 005°25'610.2
2015-Apr-17 07:33N 36°07' W 005°23'3 0.7
2015-Apr-17 03:16N 36°09' W 005°26'0 0.0
2015-Apr-16 21:07N 36°09' W 005°26'3 0.1
2015-Apr-15 19:33N 36°07' W 005°23'2 1.9
2015-Apr-15 18:33N 36°06' W 005°22'0 0.3
2015-Apr-15 17:33N 36°05' W 005°22'6 6.3
2015-Apr-15 16:33N 35°59' W 005°23'  
2015-Apr-12 03:24N 37°32' W 009°35'911.0
2015-Apr-12 02:32N 37°42' W 009°34'1110.9
2015-Apr-12 01:33N 37°52' W 009°32'1111.0
2015-Apr-12 00:33N 38°03' W 009°29'1111.1
2015-Apr-11 23:33N 38°14' W 009°27'1111.2
2015-Apr-11 22:33N 38°25' W 009°25'1110.7
2015-Apr-11 21:33N 38°36' W 009°24'1010.1
2015-Apr-11 20:33N 38°41' W 009°13'3 2.5
2015-Apr-11 19:33N 38°42' W 009°10'0 0.0
2015-Apr-11 18:33N 38°42' W 009°10'0 0.0
2015-Apr-11 17:33N 38°42' W 009°10'0 0.0
2015-Apr-11 16:33N 38°42' W 009°10'0 0.0
2015-Apr-11 15:33N 38°42' W 009°10'0 0.0
2015-Apr-11 14:33N 38°42' W 009°10'0 0.0
2015-Apr-11 13:33N 38°42' W 009°10'0 0.0
2015-Apr-11 12:33N 38°42' W 009°10'0 0.0
2015-Apr-11 11:30N 38°42' W 009°10'0 0.0
2015-Apr-11 10:33N 38°42' W 009°10'0 0.0
2015-Apr-11 09:33N 38°42' W 009°10'0 0.0
2015-Apr-11 08:33N 38°42' W 009°10'0 0.0
2015-Apr-11 07:33N 38°42' W 009°10'0 0.0
2015-Apr-11 06:33N 38°42' W 009°10'0 0.3
2015-Apr-11 05:33N 38°42' W 009°10'9 8.6
2015-Apr-11 04:33N 38°39' W 009°20'1313.4
2015-Apr-11 03:33N 38°35' W 009°36'1414.0
2015-Apr-11 02:33N 38°34' W 009°54'1212.1
2015-Apr-11 01:33N 38°37' W 010°09'1514.3
2015-Apr-11 00:31N 38°51' W 010°10'1414.6
2015-Apr-10 23:33N 39°05' W 010°05'1515.1
2015-Apr-10 22:33N 39°19' W 009°57'1414.4
2015-Apr-10 21:33N 39°31' W 009°48'3 0.1
2015-Apr-08 20:20N 39°34' W 009°47'912.3
2015-Apr-08 19:33N 39°24' W 009°48'1413.5
2015-Apr-08 18:33N 39°11' W 009°46'1413.7
2015-Apr-08 17:33N 38°57' W 009°44'1313.5
2015-Apr-08 16:33N 38°44' W 009°42'1312.5
2015-Apr-08 15:33N 38°34' W 009°32'1313.3
2015-Apr-08 14:33N 38°25' W 009°20'1111.1
2015-Apr-08 13:33N 38°24' W 009°06'8 8.5
2015-Apr-08 12:33N 38°28' W 008°57'5 3.9
2015-Apr-08 11:24N 38°28' W 008°51'3 2.9
2015-Apr-08 10:31N 38°28' W 008°48'0 0.0
2015-Apr-08 09:31N 38°28' W 008°48'0 0.0
2015-Apr-08 08:31N 38°28' W 008°48'0 0.0
2015-Apr-08 07:31N 38°28' W 008°48'0 0.0
2015-Apr-08 06:28N 38°28' W 008°48'0 0.0
2015-Apr-08 05:28N 38°28' W 008°48'0 0.0
2015-Apr-08 04:31N 38°28' W 008°48'0 0.0
2015-Apr-08 03:28N 38°28' W 008°48'0 0.0
2015-Apr-08 02:31N 38°28' W 008°48'0 0.0
2015-Apr-08 01:31N 38°28' W 008°48'0 0.0
2015-Apr-08 00:31N 38°28' W 008°48'0 0.0
2015-Apr-07 23:31N 38°28' W 008°48'0 0.0
2015-Apr-07 22:31N 38°28' W 008°48'0 0.0
2015-Apr-07 21:31N 38°28' W 008°48'0 0.0
2015-Apr-07 20:31N 38°28' W 008°48'0 0.0
2015-Apr-07 19:28N 38°28' W 008°48'0 0.0
2015-Apr-07 18:31N 38°28' W 008°48'0 0.0
2015-Apr-07 17:31N 38°28' W 008°48'0 0.0
2015-Apr-07 16:28N 38°28' W 008°48'0 0.0
2015-Apr-07 15:31N 38°28' W 008°48'0 0.0
2015-Apr-07 14:28N 38°28' W 008°48'0 0.0
2015-Apr-07 13:31N 38°28' W 008°48'0 0.0
2015-Apr-07 12:31N 38°28' W 008°48'0 0.0
2015-Apr-07 11:31N 38°28' W 008°48'0 0.0
2015-Apr-07 10:31N 38°28' W 008°48'0 0.0
2015-Apr-07 09:31N 38°28' W 008°48'0 0.0
2015-Apr-07 08:31N 38°28' W 008°48'  

Dump ship's entire track history